Time;durP1;ratioP1;P1;durP2;ratioP2;P2;SDS_P1;SDS_P2;PMS_P1;PMS_P2;Temp;Humidity;BMP_temperature;BMP_pressure;BME280_temperature;BME280_humidity;BME280_pressure;Samples;Min_cycle;Max_cycle;Signal;HPM_P1;HPM_P2
2022/01/18 00:00:14;;;;;;;10.02;2.95;;;;;;;18.68;47.11;103716.03;5053024;28;20036;-67
2022/01/18 00:02:42;;;;;;;9.15;2.83;;;;;;;18.65;46.99;103710.88;5053727;28;20049;-67
2022/01/18 00:05:13;;;;;;;9.45;2.60;;;;;;;18.63;46.96;103707.44;5053572;28;20491;-66
2022/01/18 00:07:38;;;;;;;7.55;2.30;;;;;;;18.62;46.81;103711.84;5052718;28;20465;-66
2022/01/18 00:10:04;;;;;;;7.57;2.72;;;;;;;18.59;46.82;103713.75;5053620;28;20055;-66
2022/01/18 00:17:54;;;;;;;6.45;2.65;;;;;;;18.54;46.90;103713.06;5057574;28;20045;-67
2022/01/18 00:20:30;;;;;;;9.23;2.40;;;;;;;18.52;46.87;103717.53;5054229;28;20104;-66
2022/01/18 00:22:56;;;;;;;7.78;2.53;;;;;;;18.49;47.02;103718.53;5053321;28;20150;-66
2022/01/18 00:25:21;;;;;;;7.50;3.03;;;;;;;18.49;47.13;103721.16;5053443;28;20492;-66
2022/01/18 00:27:46;;;;;;;8.65;2.92;;;;;;;18.45;46.99;103716.91;5053533;28;20095;-69
2022/01/18 00:33:16;;;;;;;9.98;2.88;;;;;;;18.42;47.14;103730.22;5053522;28;20158;-66
2022/01/18 00:35:44;;;;;;;7.15;2.65;;;;;;;18.40;46.98;103735.56;5052994;28;20030;-66
2022/01/18 00:38:28;;;;;;;8.88;2.60;;;;;;;18.38;46.72;103732.13;5052780;28;20128;-66
2022/01/18 00:40:53;;;;;;;7.95;2.35;;;;;;;18.36;46.96;103733.97;5053299;28;20029;-67
2022/01/18 00:43:19;;;;;;;6.10;2.58;;;;;;;18.35;47.04;103732.22;5052019;28;20041;-66
2022/01/18 00:45:44;;;;;;;6.70;3.80;;;;;;;18.34;46.98;103729.63;5053042;28;20059;-67
2022/01/18 00:48:09;;;;;;;6.43;2.00;;;;;;;18.33;46.96;103735.84;5052615;28;20350;-66
2022/01/18 00:50:35;;;;;;;7.57;2.72;;;;;;;18.30;47.05;103740.31;5052317;28;20044;-67
2022/01/18 00:53:05;;;;;;;8.07;2.45;;;;;;;18.30;47.45;103744.75;5053054;28;20455;-66
2022/01/18 00:55:34;;;;;;;7.35;2.72;;;;;;;18.29;47.09;103745.66;5052538;28;20032;-66
2022/01/18 00:58:00;;;;;;;8.45;2.47;;;;;;;18.25;47.06;103750.19;5052064;28;20037;-66
2022/01/18 01:00:25;;;;;;;10.87;3.00;;;;;;;18.26;47.36;103751.03;5052304;28;20040;-67
2022/01/18 01:02:50;;;;;;;7.85;2.45;;;;;;;18.25;47.47;103757.25;5052814;28;20277;-66
2022/01/18 01:05:16;;;;;;;6.23;2.30;;;;;;;18.23;47.70;103752.03;5051975;28;20040;-66
2022/01/18 01:07:41;;;;;;;8.98;2.83;;;;;;;18.22;47.49;103749.44;5052880;28;20301;-66
2022/01/18 01:10:06;;;;;;;7.82;2.40;;;;;;;18.21;47.35;103745.91;5051583;28;20123;-66
2022/01/18 01:12:35;;;;;;;8.75;2.47;;;;;;;18.20;47.48;103746.84;5051791;28;20052;-67
2022/01/18 01:15:08;;;;;;;8.52;2.45;;;;;;;18.19;47.43;103742.47;5052569;28;20108;-66
2022/01/18 01:17:45;;;;;;;7.00;2.43;;;;;;;18.18;47.24;103746.03;5052010;28;20037;-67
2022/01/18 01:34:17;;;;;;;;;;;;;;;18.08;47.39;103742.84;5053286;28;20434;-66
2022/01/18 01:36:49;;;;;;;9.07;2.75;;;;;;;18.08;47.51;103740.22;5052210;28;19958;-66
2022/01/18 01:44:39;;;;;;;10.75;2.80;;;;;;;18.05;47.59;103740.31;5051995;28;20648;-66
2022/01/18 01:47:05;;;;;;;8.30;2.92;;;;;;;18.04;47.73;103740.38;5051647;28;20032;-66
2022/01/18 01:49:30;;;;;;;7.40;2.63;;;;;;;18.02;47.32;103739.59;5052035;28;20036;-66
2022/01/18 01:51:56;;;;;;;8.13;2.92;;;;;;;18.02;47.49;103739.59;5052191;28;20416;-66
2022/01/18 01:54:21;;;;;;;7.85;2.70;;;;;;;18.00;47.38;103747.53;5051180;28;20025;-66
2022/01/18 01:56:47;;;;;;;7.53;3.15;;;;;;;18.00;47.77;103746.69;5052455;28;20060;-65
2022/01/18 01:59:12;;;;;;;9.27;2.80;;;;;;;17.99;47.63;103737.03;5052136;28;20472;-66
2022/01/18 02:01:47;;;;;;;9.15;3.05;;;;;;;17.99;47.50;103742.31;5051645;28;20473;-66
2022/01/18 02:04:12;;;;;;;9.55;2.90;;;;;;;17.98;47.70;103743.25;5051977;28;20048;-66
2022/01/18 02:06:38;;;;;;;8.20;2.70;;;;;;;17.96;47.60;103740.66;5051576;28;20535;-66
2022/01/18 02:09:04;;;;;;;7.80;2.70;;;;;;;17.97;47.88;103744.16;5052062;28;20021;-66
2022/01/18 02:11:29;;;;;;;7.68;2.65;;;;;;;17.95;47.59;103746.84;5051912;28;20037;-66
2022/01/18 02:13:56;;;;;;;9.40;2.58;;;;;;;17.94;47.31;103748.66;5051472;28;20056;-66
2022/01/18 02:21:50;;;;;;;7.78;2.50;;;;;;;17.91;47.69;103746.09;5052726;28;20511;-66
2022/01/18 02:24:20;;;;;;;7.32;2.22;;;;;;;17.91;47.79;103748.75;5055559;28;20032;-66
2022/01/18 02:26:46;;;;;;;8.25;2.92;;;;;;;17.90;47.86;103747.00;5056040;28;20033;-66
2022/01/18 02:29:15;;;;;;;9.45;2.85;;;;;;;17.90;47.69;103751.44;5054550;28;20043;-67
2022/01/18 02:31:41;;;;;;;9.23;2.97;;;;;;;17.91;47.78;103742.59;5055605;28;20041;-67
2022/01/18 02:34:12;;;;;;;8.63;2.60;;;;;;;17.92;47.89;103741.69;5055131;28;20060;-67
2022/01/18 02:36:38;;;;;;;7.60;2.70;;;;;;;17.95;48.14;103739.78;5054693;28;20096;-67
2022/01/18 02:39:05;;;;;;;7.82;2.92;;;;;;;17.97;47.73;103730.97;5055632;28;20443;-67
2022/01/18 02:41:32;;;;;;;7.25;2.35;;;;;;;18.00;47.54;103734.34;5054961;28;20047;-67
2022/01/18 02:43:59;;;;;;;6.65;2.60;;;;;;;18.01;47.48;103727.28;5054618;28;20057;-67
2022/01/18 02:46:30;;;;;;;8.00;2.70;;;;;;;18.04;47.50;103725.44;5054908;28;20094;-66
2022/01/18 02:48:57;;;;;;;8.95;2.95;;;;;;;18.06;47.47;103728.00;5054702;28;20108;-66
2022/01/18 02:51:22;;;;;;;11.02;3.40;;;;;;;18.08;47.72;103729.66;5054829;28;20504;-66
2022/01/18 02:53:53;;;;;;;6.53;2.38;;;;;;;18.08;47.49;103727.03;5055026;28;20048;-66
2022/01/18 02:56:18;;;;;;;9.48;2.97;;;;;;;18.10;47.42;103732.25;5054046;28;20124;-66
2022/01/18 02:58:43;;;;;;;7.95;2.75;;;;;;;18.11;47.10;103739.25;5055004;28;20056;-66
2022/01/18 03:03:53;;;;;;;7.80;2.83;;;;;;;18.12;47.37;103728.66;5054183;28;20087;-66
2022/01/18 03:06:18;;;;;;;7.93;2.90;;;;;;;18.13;47.09;103718.94;5054662;28;20436;-66
2022/01/18 03:08:43;;;;;;;7.72;2.85;;;;;;;18.13;47.51;103737.41;5054920;28;20466;-66
2022/01/18 03:11:09;;;;;;;6.33;2.73;;;;;;;18.13;47.14;103733.03;5053735;28;20033;-66
2022/01/18 03:13:34;;;;;;;9.57;2.97;;;;;;;18.13;47.21;103729.50;5054606;28;20277;-67
2022/01/18 03:15:59;;;;;;;9.40;2.73;;;;;;;18.13;47.23;103729.50;5054630;28;20324;-67
2022/01/18 03:18:25;;;;;;;10.43;3.08;;;;;;;18.12;47.34;103739.22;5053590;28;20286;-66
2022/01/18 03:20:50;;;;;;;7.45;2.88;;;;;;;18.13;47.19;103740.94;5054581;28;20064;-67
2022/01/18 03:23:19;;;;;;;8.32;2.92;;;;;;;18.12;47.31;103743.63;5054313;28;20044;-66
2022/01/18 03:25:55;;;;;;;8.40;2.85;;;;;;;18.11;47.50;103740.09;5053809;28;20097;-66
2022/01/18 03:28:21;;;;;;;10.57;3.20;;;;;;;18.12;47.28;103741.84;5054140;28;20051;-66
2022/01/18 03:30:49;;;;;;;10.48;3.60;;;;;;;18.14;47.54;103747.06;5054575;28;20074;-65
2022/01/18 03:33:18;;;;;;;8.45;3.05;;;;;;;18.15;47.35;103745.28;5052513;28;20041;-66
2022/01/18 03:35:45;;;;;;;7.32;2.88;;;;;;;18.16;47.30;103744.38;5054442;28;20068;-66
2022/01/18 03:38:16;;;;;;;8.48;2.50;;;;;;;18.17;47.41;103744.31;5053118;28;20045;-65
2022/01/18 03:40:42;;;;;;;6.32;2.45;;;;;;;18.18;47.67;103745.19;5054120;28;20051;-65
2022/01/18 03:43:11;;;;;;;7.80;2.55;;;;;;;18.19;47.15;103744.28;5053828;28;20017;-67
2022/01/18 03:45:43;;;;;;;7.88;3.05;;;;;;;18.19;47.33;103739.84;5053391;28;20428;-66
2022/01/18 03:48:17;;;;;;;8.07;2.83;;;;;;;18.19;47.39;103741.63;5053917;28;20099;-66
2022/01/18 03:50:43;;;;;;;9.30;3.03;;;;;;;18.18;47.19;103746.03;5053985;28;20486;-66
2022/01/18 03:53:10;;;;;;;7.80;3.00;;;;;;;18.20;47.08;103748.59;5052404;28;20057;-66
2022/01/18 03:55:35;;;;;;;7.75;2.75;;;;;;;18.20;47.28;103756.53;5053979;28;20515;-66
2022/01/18 03:58:01;;;;;;;8.10;2.35;;;;;;;18.19;47.24;103753.03;5053911;28;20033;-67
2022/01/18 04:00:28;;;;;;;6.50;2.28;;;;;;;18.18;46.85;103753.94;5052970;28;20476;-66
2022/01/18 04:02:54;;;;;;;8.55;2.53;;;;;;;18.19;47.07;103762.75;5053689;28;20068;-67
2022/01/18 04:05:20;;;;;;;10.15;2.78;;;;;;;18.18;47.08;103758.38;5053546;28;20087;-67
2022/01/18 04:07:46;;;;;;;9.77;2.88;;;;;;;18.16;47.09;103755.78;5052800;28;20029;-64
2022/01/18 04:10:15;;;;;;;7.18;2.58;;;;;;;18.16;46.97;103763.69;5053503;28;20104;-66
2022/01/18 04:12:40;;;;;;;6.60;2.42;;;;;;;18.16;46.86;103762.84;5053782;28;20087;-66
2022/01/18 04:15:09;;;;;;;7.70;2.60;;;;;;;18.16;47.06;103765.50;5052997;28;20033;-67
2022/01/18 04:25:55;;;;;;;6.47;2.58;;;;;;;18.14;47.34;103765.53;5053842;28;20435;-66
2022/01/18 04:30:47;;;;;;;7.10;3.03;;;;;;;18.19;47.46;103775.94;5053227;28;20033;-66
2022/01/18 04:33:12;;;;;;;8.82;2.72;;;;;;;18.19;47.30;103770.66;5053138;28;20029;-66
2022/01/18 04:35:37;;;;;;;8.50;2.70;;;;;;;18.19;47.66;103770.66;5052118;28;20041;-66
2022/01/18 04:38:02;;;;;;;7.03;2.40;;;;;;;18.19;47.43;103768.03;5053099;28;20292;-66
2022/01/18 04:40:30;;;;;;;8.40;2.78;;;;;;;18.18;47.08;103772.41;5052989;28;20319;-66
2022/01/18 04:51:12;;;;;;;7.38;3.17;;;;;;;18.17;46.90;103772.50;5053508;28;20043;-66
2022/01/18 04:53:48;;;;;;;8.35;2.63;;;;;;;18.18;46.91;103771.56;5055879;28;20056;-67
2022/01/18 04:56:17;;;;;;;7.28;2.58;;;;;;;18.16;46.97;103773.41;5054904;28;20028;-66
2022/01/18 04:58:45;;;;;;;7.40;2.60;;;;;;;18.15;47.06;103769.91;5056398;28;20045;-67
2022/01/18 05:01:12;;;;;;;7.55;2.80;;;;;;;18.14;47.20;103770.81;5056075;28;20055;-67
2022/01/18 05:03:37;;;;;;;8.05;2.78;;;;;;;18.13;46.97;103779.66;5055859;28;20401;-67
2022/01/18 05:06:09;;;;;;;8.00;2.60;;;;;;;18.13;47.13;103783.16;5057374;28;20040;-66
2022/01/18 05:08:36;;;;;;;8.40;2.80;;;;;;;18.13;47.19;103780.53;5055976;28;20104;-66
2022/01/18 05:11:04;;;;;;;7.95;2.65;;;;;;;18.11;46.74;103782.34;5052210;28;20022;-67
2022/01/18 05:14:02;;;;;;;6.32;2.55;;;;;;;18.11;47.22;103789.41;5052419;28;20477;-67
2022/01/18 05:20:13;;;;;;;7.88;2.78;;;;;;;18.11;47.45;103786.78;5053003;28;20029;-66
2022/01/18 05:24:21;;;;;;;8.13;2.97;;;;;;;18.12;47.56;103788.50;5051690;28;20029;-67
2022/01/18 05:26:46;;;;;;;8.18;3.20;;;;;;;18.11;47.34;103778.84;5052505;28;20056;-67
2022/01/18 05:29:12;;;;;;;6.95;3.17;;;;;;;18.13;47.57;103785.81;5052146;28;20091;-67
2022/01/18 05:31:37;;;;;;;8.85;2.90;;;;;;;18.13;46.97;103783.16;5051936;28;20049;-66
2022/01/18 05:34:02;;;;;;;9.43;3.40;;;;;;;18.13;47.43;103779.66;5052589;28;20119;-67
2022/01/18 05:36:29;;;;;;;8.68;3.22;;;;;;;18.14;47.15;103786.66;5052104;28;20444;-66
2022/01/18 05:38:54;;;;;;;6.88;2.47;;;;;;;18.14;47.15;103794.59;5051699;28;20025;-67
2022/01/18 05:41:19;;;;;;;6.60;2.85;;;;;;;18.12;47.34;103788.50;5051926;28;20050;-67
2022/01/18 05:43:45;;;;;;;6.55;2.60;;;;;;;18.13;47.19;103790.22;5052293;28;20027;-67
2022/01/18 05:46:10;;;;;;;6.80;2.92;;;;;;;18.12;47.50;103792.00;5051385;28;20480;-67
2022/01/18 05:48:36;;;;;;;9.93;3.42;;;;;;;18.12;47.29;103784.06;5052561;28;20494;-67
2022/01/18 05:51:01;;;;;;;9.38;3.15;;;;;;;18.14;47.71;103770.81;5052377;28;20116;-67
2022/01/18 05:53:31;;;;;;;9.23;2.95;;;;;;;18.15;47.63;103783.13;5051163;28;20033;-67
2022/01/18 05:55:58;;;;;;;9.02;3.40;;;;;;;18.17;47.30;103783.06;5052102;28;20503;-67
2022/01/18 05:58:26;;;;;;;9.32;3.08;;;;;;;18.17;47.35;103785.69;5055980;28;20029;-67
2022/01/18 06:00:55;;;;;;;7.75;2.63;;;;;;;18.17;47.34;103786.56;5055380;28;20120;-67
2022/01/18 06:03:29;;;;;;;8.77;3.47;;;;;;;18.19;47.52;103786.50;5055459;28;20416;-67
2022/01/18 06:08:39;;;;;;;8.43;2.92;;;;;;;18.21;47.97;103777.59;5056136;28;20036;-67
2022/01/18 06:11:07;;;;;;;9.32;2.90;;;;;;;18.24;48.46;103780.13;5055979;28;20025;-66
2022/01/18 06:13:32;;;;;;;7.80;2.65;;;;;;;18.27;48.44;103780.03;5055121;28;20104;-66
2022/01/18 06:15:58;;;;;;;6.63;3.00;;;;;;;18.29;48.24;103779.97;5055846;28;20120;-66
2022/01/18 06:18:23;;;;;;;8.30;2.90;;;;;;;18.32;48.45;103790.41;5055422;28;20365;-66
2022/01/18 06:20:49;;;;;;;6.97;2.58;;;;;;;18.33;48.21;103773.69;5054863;28;20033;-65
2022/01/18 06:23:14;;;;;;;6.75;2.50;;;;;;;18.38;48.50;103784.06;5055200;28;20044;-66
2022/01/18 06:25:40;;;;;;;6.35;2.55;;;;;;;18.40;48.56;103785.72;5055436;28;20025;-65
2022/01/18 06:28:06;;;;;;;7.70;2.53;;;;;;;18.42;48.32;103786.56;5054929;28;20027;-66
2022/01/18 06:30:31;;;;;;;7.20;2.22;;;;;;;18.45;48.38;103777.63;5055530;28;20021;-66
2022/01/18 06:32:56;;;;;;;6.25;2.50;;;;;;;18.46;48.39;103782.00;5055642;28;20384;-66
2022/01/18 06:35:22;;;;;;;6.23;2.40;;;;;;;18.49;48.41;103787.19;5054252;28;20488;-66
2022/01/18 06:37:50;;;;;;;7.03;2.27;;;;;;;18.50;48.54;103783.63;5055146;28;20293;-66
2022/01/18 06:40:16;;;;;;;7.28;2.63;;;;;;;18.50;48.27;103783.63;5055123;28;20290;-67
2022/01/18 06:42:42;;;;;;;6.03;2.58;;;;;;;18.52;48.48;103776.50;5054502;28;20443;-66
2022/01/18 06:45:09;;;;;;;7.75;2.78;;;;;;;18.52;48.37;103784.44;5055016;28;20044;-66
2022/01/18 06:47:34;;;;;;;7.30;2.22;;;;;;;18.55;48.39;103780.78;5055264;28;20025;-66
2022/01/18 06:50:02;;;;;;;7.50;2.88;;;;;;;18.56;48.63;103787.81;5054416;28;20043;-66
2022/01/18 06:52:28;;;;;;;8.15;2.70;;;;;;;18.56;48.40;103782.53;5054648;28;20036;-66
2022/01/18 06:54:53;;;;;;;7.43;2.60;;;;;;;18.57;48.41;103786.91;5055007;28;20102;-66
2022/01/18 06:57:18;;;;;;;6.90;2.65;;;;;;;18.58;48.39;103786.84;5054539;28;20024;-66
2022/01/18 06:59:44;;;;;;;7.13;2.42;;;;;;;18.59;48.31;103791.19;5054951;28;20025;-64
2022/01/18 07:02:09;;;;;;;10.40;3.72;;;;;;;18.55;46.20;103794.00;5053877;28;20037;-64
2022/01/18 07:04:35;;;;;;;6.68;2.58;;;;;;;18.54;47.57;103790.50;5054824;28;20381;-63
2022/01/18 07:07:01;;;;;;;8.98;3.05;;;;;;;18.54;48.03;103801.06;5054614;28;20029;-66
2022/01/18 07:09:26;;;;;;;7.93;3.00;;;;;;;18.56;48.18;103793.09;5053953;28;20037;-66
2022/01/18 07:11:52;;;;;;;8.15;2.70;;;;;;;18.58;48.42;103804.44;5054811;28;20028;-65
2022/01/18 07:14:18;;;;;;;6.15;2.10;;;;;;;18.59;48.51;103800.91;5054343;28;20017;-65
2022/01/18 07:16:43;;;;;;;7.18;2.35;;;;;;;18.62;48.38;103803.44;5053947;28;20040;-65
2022/01/18 07:19:08;;;;;;;7.90;2.50;;;;;;;18.64;48.49;103807.75;5054314;28;20027;-64
2022/01/18 07:21:34;;;;;;;7.32;2.53;;;;;;;18.65;48.42;103804.19;5054467;28;20025;-66
2022/01/18 07:24:15;;;;;;;7.03;2.60;;;;;;;18.68;48.25;103806.72;5053912;28;20385;-65
2022/01/18 07:26:40;;;;;;;7.28;2.60;;;;;;;18.71;48.66;103807.50;5054806;28;20086;-67
2022/01/18 07:29:05;;;;;;;7.57;2.03;;;;;;;18.71;48.50;103804.88;5054510;28;20453;-65
2022/01/18 07:31:30;;;;;;;6.03;2.25;;;;;;;18.73;48.72;103814.47;5053409;28;20029;-65
2022/01/18 07:33:56;;;;;;;6.33;1.97;;;;;;;18.74;48.54;103816.19;5054273;28;20540;-65
2022/01/18 07:36:21;;;;;;;9.30;2.37;;;;;;;18.75;48.53;103815.25;5054072;28;20270;-65
2022/01/18 07:38:46;;;;;;;8.00;2.40;;;;;;;18.78;48.78;103816.94;5053724;28;20294;-65
2022/01/18 07:41:12;;;;;;;7.53;2.80;;;;;;;18.80;48.64;103815.09;5053966;28;20170;-65
2022/01/18 07:43:40;;;;;;;5.88;2.08;;;;;;;18.80;48.91;103820.38;5054191;28;20270;-65
2022/01/18 07:46:05;;;;;;;10.43;2.58;;;;;;;18.82;48.76;103822.06;5053479;28;20037;-62
2022/01/18 07:48:30;;;;;;;5.47;2.30;;;;;;;18.83;48.81;103822.91;5053616;28;20453;-65
2022/01/18 07:50:57;;;;;;;8.00;2.05;;;;;;;18.87;48.88;103823.69;5053904;28;20025;-67
2022/01/18 07:53:28;;;;;;;5.80;2.20;;;;;;;18.88;48.86;103820.13;5053071;28;20037;-68
2022/01/18 07:55:53;;;;;;;6.63;1.98;;;;;;;18.90;48.75;103826.22;5054050;28;20051;-66
2022/01/18 07:58:19;;;;;;;7.07;2.43;;;;;;;18.90;48.67;103827.09;5052867;28;20485;-66
2022/01/18 08:00:47;;;;;;;7.32;2.47;;;;;;;18.92;48.78;103827.88;5053641;28;20285;-67
2022/01/18 08:03:12;;;;;;;7.20;2.45;;;;;;;18.94;48.69;103830.47;5053254;28;20043;-67
2022/01/18 08:05:38;;;;;;;5.85;2.17;;;;;;;18.95;49.12;103826.91;5052913;28;20112;-68
2022/01/18 08:08:05;;;;;;;5.55;2.58;;;;;;;18.96;48.82;103821.56;5053708;28;20029;-67
2022/01/18 08:10:31;;;;;;;7.30;2.28;;;;;;;18.99;49.00;103833.78;5053620;28;20112;-75
2022/01/18 08:13:02;;;;;;;6.45;1.90;;;;;;;18.99;49.27;103837.31;5052994;28;20112;-61
2022/01/18 08:15:36;;;;;;;7.68;3.30;;;;;;;18.93;47.54;103829.63;5053317;28;20043;-66
2022/01/18 08:18:02;;;;;;;;;;;;;;;18.91;48.58;103830.59;5054131;28;20064;-66
2022/01/18 08:20:27;;;;;;;6.78;2.70;;;;;;;18.93;48.72;103829.63;5052085;28;19960;-66
2022/01/18 08:22:52;;;;;;;6.13;2.03;;;;;;;18.95;49.19;103824.28;5053582;28;20075;-65
2022/01/18 08:25:18;;;;;;;6.07;2.10;;;;;;;18.96;48.91;103823.34;5053080;28;20281;-65
2022/01/18 08:27:45;;;;;;;6.88;1.85;;;;;;;18.96;48.86;103824.22;5052561;28;20317;-67
2022/01/18 08:30:12;;;;;;;8.38;2.35;;;;;;;18.98;48.93;103830.31;5053456;28;20044;-66
2022/01/18 08:32:38;;;;;;;6.05;2.08;;;;;;;18.98;48.86;103825.00;5053157;28;20501;-64
2022/01/18 08:35:04;;;;;;;5.35;2.20;;;;;;;18.99;49.13;103823.22;5052625;28;20032;-67
2022/01/18 08:37:30;;;;;;;6.15;2.33;;;;;;;19.02;49.27;103823.97;5052952;28;20040;-69
2022/01/18 08:39:58;;;;;;;7.63;2.60;;;;;;;19.06;49.23;103819.44;5053691;28;20090;-69
2022/01/18 08:42:23;;;;;;;6.57;2.42;;;;;;;19.11;49.30;103813.97;5052104;28;20029;-66
2022/01/18 08:44:48;;;;;;;6.97;2.38;;;;;;;19.16;48.95;103819.94;5053461;28;20048;-63
2022/01/18 08:47:15;;;;;;;5.07;2.05;;;;;;;19.19;48.94;103819.81;5052878;28;20025;-63
2022/01/18 08:49:40;;;;;;;6.68;2.17;;;;;;;19.16;48.82;103820.78;5052022;28;20508;-64
2022/01/18 08:52:09;;;;;;;10.25;2.40;;;;;;;19.15;48.82;103826.13;5052911;28;20029;-64
2022/01/18 08:54:34;;;;;;;6.32;2.22;;;;;;;19.14;49.14;103833.22;5052254;28;20112;-62
2022/01/18 08:57:03;;;;;;;5.93;2.00;;;;;;;19.11;48.86;103830.69;5052699;28;20174;-62
2022/01/18 08:59:30;;;;;;;5.80;2.10;;;;;;;19.11;48.98;103828.03;5052428;28;20104;-63
2022/01/18 09:01:59;;;;;;;8.00;2.03;;;;;;;19.11;48.86;103829.84;5051820;28;20611;-62
2022/01/18 09:04:27;;;;;;;5.82;2.20;;;;;;;19.09;48.79;103829.91;5052163;28;20076;-62
2022/01/18 09:06:52;;;;;;;7.25;2.83;;;;;;;19.09;48.90;103821.97;5052829;28;20037;-61
2022/01/18 09:09:19;;;;;;;6.73;2.30;;;;;;;19.08;48.83;103817.59;5051559;28;20040;-62
2022/01/18 09:11:45;;;;;;;7.47;2.38;;;;;;;19.08;48.74;103830.81;5052573;28;20280;-63
2022/01/18 09:14:11;;;;;;;6.22;2.25;;;;;;;19.08;48.55;103833.44;5052063;28;20021;-62
2022/01/18 09:16:37;;;;;;;6.18;2.58;;;;;;;19.07;49.05;103823.78;5051643;28;20489;-63
2022/01/18 09:19:02;;;;;;;7.80;2.72;;;;;;;19.08;48.74;103835.25;5052541;28;20033;-63
2022/01/18 09:21:28;;;;;;;6.43;2.22;;;;;;;19.08;49.11;103838.75;5052200;28;20041;-64
2022/01/18 09:23:53;;;;;;;7.25;2.60;;;;;;;19.13;48.83;103841.22;5053556;28;20116;-67
2022/01/18 09:26:18;;;;;;;8.02;2.55;;;;;;;19.20;49.30;103837.38;5052523;28;20025;-68
2022/01/18 09:28:44;;;;;;;11.23;2.65;;;;;;;19.28;48.74;103839.75;5054737;28;20056;-65
2022/01/18 09:31:10;;;;;;;8.98;2.40;;;;;;;19.35;48.68;103847.38;5052483;28;20024;-67
2022/01/18 09:33:55;;;;;;;6.47;2.50;;;;;;;19.42;48.19;103847.13;5057314;28;20031;-67
2022/01/18 09:36:23;;;;;;;6.68;2.60;;;;;;;19.45;48.28;103845.22;5056149;28;20106;-67
2022/01/18 09:38:48;;;;;;;8.60;2.85;;;;;;;19.47;47.81;103846.06;5055877;28;20484;-66
2022/01/18 09:41:17;;;;;;;7.20;2.80;;;;;;;19.51;47.78;103847.63;5056124;28;20044;-66
2022/01/18 09:43:45;;;;;;;8.13;2.35;;;;;;;19.55;47.79;103854.53;5056083;28;20025;-66
2022/01/18 09:46:11;;;;;;;6.43;2.65;;;;;;;19.60;47.65;103854.34;5055984;28;20603;-65
2022/01/18 09:48:37;;;;;;;7.03;2.65;;;;;;;19.62;47.57;103851.66;5056545;28;20119;-67
2022/01/18 09:51:03;;;;;;;7.85;2.88;;;;;;;19.66;47.58;103858.50;5055708;28;20140;-66
2022/01/18 09:53:28;;;;;;;6.93;2.60;;;;;;;19.67;47.70;103863.75;5055997;28;20162;-67
2022/01/18 09:55:53;;;;;;;9.30;2.78;;;;;;;19.68;47.75;103856.69;5056299;28;20036;-67
2022/01/18 09:58:20;;;;;;;7.70;2.90;;;;;;;19.69;47.78;103861.03;5055362;28;20096;-68
2022/01/18 10:00:46;;;;;;;10.82;3.00;;;;;;;19.71;47.81;103861.81;5056120;28;20592;-65
2022/01/18 10:03:33;;;;;;;8.82;3.10;;;;;;;19.71;47.65;103865.34;5056004;28;20032;-65
2022/01/18 10:05:59;;;;;;;8.43;3.45;;;;;;;19.71;47.64;103856.53;5055532;28;20025;-67
2022/01/18 10:08:25;;;;;;;8.73;3.40;;;;;;;19.72;47.78;103858.28;5055624;28;20037;-67
2022/01/18 10:10:56;;;;;;;10.60;3.83;;;;;;;19.71;47.80;103851.25;5056311;28;20028;-65
2022/01/18 10:13:26;;;;;;;10.00;3.60;;;;;;;19.71;47.73;103856.53;5055198;28;20408;-63
2022/01/18 10:16:15;;;;;;;8.35;3.30;;;;;;;19.65;47.74;103860.31;5056025;28;20029;-64
2022/01/18 10:18:53;;;;;;;8.00;3.30;;;;;;;19.57;47.66;103862.41;5055981;28;20036;-64
2022/01/18 10:21:32;;;;;;;12.68;3.38;;;;;;;19.53;47.99;103861.66;5055681;28;20129;-63
2022/01/18 10:24:16;;;;;;;9.73;3.13;;;;;;;19.48;48.03;103860.13;5055915;28;20042;-64
2022/01/18 10:26:42;;;;;;;9.57;3.53;;;;;;;19.43;48.15;103855.00;5055175;28;20044;-64
2022/01/18 10:29:09;;;;;;;11.57;3.63;;;;;;;19.40;48.25;103860.41;5055469;28;20021;-64
2022/01/18 10:35:11;;;;;;;8.60;3.47;;;;;;;19.32;48.37;103854.56;5054610;28;20493;-64
2022/01/18 10:37:25;;;;;;;8.55;3.35;;;;;;;19.31;48.39;103844.91;5051028;28;20505;-64
2022/01/18 10:40:03;;;;;;;10.20;3.05;;;;;;;19.28;48.50;103840.63;5055383;28;20481;-64
2022/01/18 10:42:39;;;;;;;7.55;2.80;;;;;;;19.28;48.64;103842.38;5054768;28;20021;-66
2022/01/18 10:45:09;;;;;;;8.52;2.75;;;;;;;19.25;48.16;103837.22;5055662;28;20021;-64
2022/01/18 10:47:46;;;;;;;8.18;2.85;;;;;;;19.24;48.45;103830.22;5054607;28;20427;-64
2022/01/18 10:50:14;;;;;;;6.97;3.08;;;;;;;19.24;48.43;103832.88;5055182;28;20025;-64
2022/01/18 10:52:41;;;;;;;7.68;2.50;;;;;;;19.23;48.76;103826.69;5055461;28;20052;-64
2022/01/18 10:55:13;;;;;;;8.38;3.08;;;;;;;19.21;48.40;103824.13;5054388;28;20029;-61
2022/01/18 10:57:39;;;;;;;7.38;2.88;;;;;;;19.21;48.64;103820.63;5055306;28;20021;-61
2022/01/18 11:00:11;;;;;;;6.75;2.90;;;;;;;19.19;48.81;103823.31;5054821;28;20535;-60
2022/01/18 11:02:41;;;;;;;6.82;2.95;;;;;;;19.19;48.48;103818.03;5054614;28;20036;-60
2022/01/18 11:05:28;;;;;;;8.82;3.38;;;;;;;19.15;48.26;103824.38;5055082;28;20048;-62
2022/01/18 11:07:55;;;;;;;6.18;2.72;;;;;;;19.15;48.31;103818.22;5054866;28;20388;-64
2022/01/18 11:10:24;;;;;;;6.85;3.10;;;;;;;19.14;48.42;103813.88;5053885;28;20041;-63
2022/01/18 11:13:03;;;;;;;7.57;2.55;;;;;;;19.15;48.44;103811.16;5054783;28;20032;-63
2022/01/18 11:15:29;;;;;;;7.45;2.47;;;;;;;19.16;48.57;103809.38;5053891;28;20033;-64
2022/01/18 11:18:00;;;;;;;8.98;3.00;;;;;;;19.16;48.70;103812.00;5054846;28;20528;-65
2022/01/18 11:20:28;;;;;;;7.65;2.85;;;;;;;19.15;48.77;103819.09;5054303;28;20167;-65
2022/01/18 11:22:56;;;;;;;7.15;3.10;;;;;;;19.16;48.69;103810.22;5053834;28;20035;-65
2022/01/18 11:25:22;;;;;;;6.65;2.58;;;;;;;19.15;48.96;103805.88;5054251;28;20021;-65
2022/01/18 11:27:51;;;;;;;7.10;2.65;;;;;;;19.16;48.91;103802.28;5054813;28;20033;-64
2022/01/18 11:30:21;;;;;;;7.95;2.63;;;;;;;19.16;48.76;103804.94;5053665;28;20021;-65
2022/01/18 11:32:50;;;;;;;7.55;2.88;;;;;;;19.18;48.67;103803.13;5054479;28;20387;-65
2022/01/18 11:35:31;;;;;;;6.53;2.30;;;;;;;19.18;48.80;103802.22;5054209;28;20025;-65
2022/01/18 11:38:04;;;;;;;6.63;2.63;;;;;;;19.19;48.74;103799.53;5053521;28;20127;-66
2022/01/18 11:40:55;;;;;;;6.15;2.60;;;;;;;19.20;48.95;103795.09;5054166;28;20029;-64
2022/01/18 11:43:37;;;;;;;7.80;2.80;;;;;;;19.20;49.09;103801.25;5050628;28;20064;-64
2022/01/18 11:46:30;;;;;;;12.93;3.63;;;;;;;19.18;48.62;103797.81;5054076;28;20036;-64
2022/01/18 11:49:22;;;;;;;7.57;2.65;;;;;;;19.16;48.82;103789.06;5054411;28;20033;-65
2022/01/18 11:51:53;;;;;;;6.60;2.50;;;;;;;19.17;49.09;103792.59;5053248;28;20493;-62
2022/01/18 11:57:41;;;;;;;7.57;2.88;;;;;;;19.15;49.00;103787.38;5053656;28;20155;-62
2022/01/18 12:00:06;;;;;;;7.95;2.55;;;;;;;19.16;48.95;103789.06;5053843;28;20047;-63
2022/01/18 12:02:41;;;;;;;8.33;2.70;;;;;;;19.15;49.11;103792.66;5053779;28;20477;-63
2022/01/18 12:05:18;;;;;;;7.57;2.90;;;;;;;19.15;48.99;103792.66;5053180;28;20059;-63
2022/01/18 12:08:29;;;;;;;9.30;2.30;;;;;;;19.15;49.06;103790.00;5053935;28;20020;-63
2022/01/18 12:10:54;;;;;;;7.53;2.47;;;;;;;19.15;49.24;103787.38;5051467;28;20041;-64
2022/01/18 12:13:26;;;;;;;7.80;2.65;;;;;;;19.15;49.29;103782.06;5052670;28;20358;-64
2022/01/18 12:15:56;;;;;;;7.10;2.42;;;;;;;19.16;49.20;103773.22;5053779;28;20021;-63
2022/01/18 12:18:32;;;;;;;5.97;2.38;;;;;;;19.17;49.11;103768.81;5053493;28;20116;-64
2022/01/18 12:21:04;;;;;;;8.00;2.80;;;;;;;19.18;49.22;103775.78;5053580;28;20029;-63
2022/01/18 12:23:32;;;;;;;7.93;2.67;;;;;;;19.18;49.30;103774.03;5053296;28;20104;-63
2022/01/18 12:26:27;;;;;;;8.95;3.03;;;;;;;19.18;49.31;103775.78;5052916;28;20033;-63
2022/01/18 12:34:50;;;;;;;7.03;2.78;;;;;;;19.19;48.95;103764.31;5052602;28;20037;-63
2022/01/18 12:37:19;;;;;;;6.25;2.65;;;;;;;19.19;49.01;103765.16;5052904;28;20060;-63
2022/01/18 12:39:51;;;;;;;7.30;2.42;;;;;;;19.20;48.96;103761.59;5052363;28;20029;-62
2022/01/18 12:44:59;;;;;;;7.22;2.65;;;;;;;19.23;49.27;103765.03;5052949;28;20401;-62
2022/01/18 12:47:24;;;;;;;8.30;2.80;;;;;;;19.22;49.25;103761.53;5052027;28;20021;-63